Time;durP1;ratioP1;P1;durP2;ratioP2;P2;SDS_P1;SDS_P2;PMS_P1;PMS_P2;Temp;Humidity;BMP_temperature;BMP_pressure;BME280_temperature;BME280_humidity;BME280_pressure;Samples;Min_cycle;Max_cycle;Signal;HPM_P1;HPM_P2
2021/06/18 00:01:15;;;;;;;8.43;7.70;;;21.40;72.80;;;;;;4991686;28;20616;-88
2021/06/18 00:03:43;;;;;;;9.60;7.50;;;21.40;71.80;;;;;;4991247;28;21019;-88
2021/06/18 00:06:10;;;;;;;7.97;7.33;;;21.30;73.30;;;;;;4990987;28;20637;-88
2021/06/18 00:08:37;;;;;;;7.73;7.13;;;21.30;73.40;;;;;;4991230;28;20651;-88
2021/06/18 00:11:04;;;;;;;8.93;8.03;;;21.30;73.70;;;;;;4990922;28;20663;-88
2021/06/18 00:13:33;;;;;;;8.20;7.40;;;21.30;72.90;;;;;;4991706;28;20625;-88
2021/06/18 00:16:00;;;;;;;8.47;7.87;;;21.30;73.30;;;;;;4996152;28;20627;-88
2021/06/18 00:18:27;;;;;;;7.93;7.13;;;21.20;73.40;;;;;;4992579;28;20624;-88
2021/06/18 00:20:54;;;;;;;9.43;8.03;;;21.20;73.10;;;;;;4991944;28;20624;-88
2021/06/18 00:23:21;;;;;;;10.30;9.00;;;21.20;74.80;;;;;;4991112;28;20629;-88
2021/06/18 00:25:48;;;;;;;10.37;8.57;;;21.10;75.60;;;;;;4989901;28;20613;-88
2021/06/18 00:28:15;;;;;;;8.80;8.00;;;21.10;75.90;;;;;;4990900;28;20609;-88
2021/06/18 00:30:43;;;;;;;7.80;7.10;;;21.10;74.70;;;;;;4991210;28;20641;-88
2021/06/18 00:33:10;;;;;;;8.10;7.40;;;21.00;74.40;;;;;;4991496;28;20723;-87
2021/06/18 00:35:38;;;;;;;8.43;7.83;;;20.90;74.50;;;;;;4990861;28;21013;-88
2021/06/18 00:38:05;;;;;;;8.60;7.90;;;21.00;76.60;;;;;;4991008;28;20958;-88
2021/06/18 00:40:32;;;;;;;12.97;8.30;;;20.80;77.10;;;;;;4990637;28;21232;-88
2021/06/18 00:42:59;;;;;;;8.87;8.17;;;20.70;78.40;;;;;;4990841;28;20617;-88
2021/06/18 00:45:26;;;;;;;7.70;7.20;;;20.60;78.50;;;;;;4990670;28;20636;-88
2021/06/18 00:47:56;;;;;;;9.60;8.70;;;20.60;79.60;;;;;;4991289;28;20621;-88
2021/06/18 00:50:23;;;;;;;9.60;8.90;;;20.50;80.00;;;;;;4990937;28;20648;-88
2021/06/18 00:52:50;;;;;;;9.43;8.47;;;20.50;80.30;;;;;;4990448;28;21023;-88
2021/06/18 00:55:17;;;;;;;9.53;8.73;;;20.60;79.40;;;;;;4990722;28;20631;-88
2021/06/18 00:57:44;;;;;;;9.17;8.27;;;20.50;80.30;;;;;;4994769;28;20675;-87
2021/06/18 01:00:12;;;;;;;10.37;9.43;;;20.50;79.50;;;;;;4994656;28;20609;-87
2021/06/18 01:02:39;;;;;;;9.63;8.53;;;20.50;79.20;;;;;;4993899;28;20636;-87
2021/06/18 01:05:14;;;;;;;9.50;8.80;;;20.60;78.60;;;;;;4994283;28;20631;-88
2021/06/18 01:07:49;;;;;;;8.87;8.17;;;20.60;77.70;;;;;;4994362;28;20730;-87
2021/06/18 01:10:24;;;;;;;9.77;9.00;;;20.50;78.90;;;;;;4994335;28;20611;-87
2021/06/18 01:13:03;;;;;;;9.60;8.70;;;20.40;78.00;;;;;;4994315;28;21208;-88
2021/06/18 01:15:38;;;;;;;10.73;9.77;;;20.40;78.50;;;;;;4993756;28;20715;-88
2021/06/18 01:18:12;;;;;;;9.53;8.83;;;20.40;78.60;;;;;;4994313;28;20674;-87
2021/06/18 01:21:12;;;;;;;9.87;9.00;;;20.30;79.50;;;;;;4994430;28;20616;-87
2021/06/18 01:23:54;;;;;;;9.87;9.07;;;20.30;81.30;;;;;;4994278;28;20740;-86
2021/06/18 01:27:07;;;;;;;9.97;8.33;;;20.30;81.10;;;;;;4998680;28;21220;-89
2021/06/18 01:29:40;;;;;;;8.97;8.23;;;20.20;82.10;;;;;;4937741;28;20632;-88
2021/06/18 01:32:13;;;;;;;9.27;8.30;;;20.20;82.80;;;;;;4994387;28;21197;-87
2021/06/18 01:34:43;;;;;;;9.03;8.33;;;20.20;81.90;;;;;;4993742;28;20626;-88
2021/06/18 01:37:14;;;;;;;8.87;8.17;;;20.20;81.10;;;;;;4993943;28;20625;-87
2021/06/18 01:39:44;;;;;;;8.73;7.80;;;20.20;80.00;;;;;;4994260;28;21051;-88
2021/06/18 01:42:14;;;;;;;8.53;7.90;;;20.10;79.90;;;;;;4993371;28;20629;-88
2021/06/18 01:44:44;;;;;;;8.10;7.50;;;20.10;79.90;;;;;;4993294;28;20624;-88
2021/06/18 01:47:16;;;;;;;9.10;8.30;;;20.10;79.20;;;;;;4993577;28;20628;-88
2021/06/18 01:49:46;;;;;;;8.40;7.77;;;20.00;81.40;;;;;;4993893;28;20722;-87
2021/06/18 01:52:16;;;;;;;8.47;7.80;;;20.10;80.10;;;;;;4993524;28;20643;-87
2021/06/18 01:54:45;;;;;;;8.60;7.90;;;20.00;81.40;;;;;;4984202;28;21198;-88
2021/06/18 01:57:15;;;;;;;9.07;8.37;;;20.00;82.90;;;;;;4990203;28;20679;-87
2021/06/18 01:59:52;;;;;;;9.30;8.47;;;20.00;82.50;;;;;;4991024;28;20640;-87
2021/06/18 02:02:22;;;;;;;10.60;8.27;;;20.00;83.10;;;;;;4993369;28;20654;-87
2021/06/18 02:04:54;;;;;;;8.13;7.43;;;19.90;82.10;;;;;;4993113;28;20627;-87
2021/06/18 02:07:26;;;;;;;9.37;8.47;;;19.90;80.80;;;;;;4992316;28;20628;-87
2021/06/18 02:09:57;;;;;;;8.50;7.90;;;19.90;80.60;;;;;;4992916;28;20683;-87
2021/06/18 02:12:26;;;;;;;10.20;8.57;;;19.80;80.00;;;;;;4993242;28;20672;-87
2021/06/18 02:14:58;;;;;;;8.37;7.77;;;19.80;80.40;;;;;;4992662;28;20624;-87
2021/06/18 02:17:28;;;;;;;9.17;8.27;;;19.80;80.20;;;;;;4993180;28;20621;-87
2021/06/18 02:19:57;;;;;;;8.23;7.13;;;19.80;80.60;;;;;;4993124;28;20627;-87
2021/06/18 02:22:32;;;;;;;8.53;7.77;;;19.80;80.30;;;;;;4993073;28;20612;-88
2021/06/18 02:25:02;;;;;;;8.60;7.80;;;19.90;79.80;;;;;;4992637;28;20642;-88
2021/06/18 02:27:30;;;;;;;8.63;8.03;;;19.80;79.90;;;;;;4992896;28;20646;-87
2021/06/18 02:29:58;;;;;;;8.80;8.00;;;19.70;80.70;;;;;;4993216;28;20600;-87
2021/06/18 02:32:27;;;;;;;8.47;7.80;;;19.70;81.40;;;;;;4992928;28;20645;-87
2021/06/18 02:34:54;;;;;;;8.13;7.43;;;19.70;80.90;;;;;;4992362;28;20624;-87
2021/06/18 02:37:21;;;;;;;9.03;8.10;;;19.70;79.80;;;;;;4995440;28;21154;-87
2021/06/18 02:39:48;;;;;;;7.63;6.93;;;19.80;80.00;;;;;;4996340;28;20611;-87
2021/06/18 02:42:16;;;;;;;8.03;7.23;;;19.70;78.60;;;;;;4993580;28;20664;-88
2021/06/18 02:44:43;;;;;;;9.87;7.70;;;19.70;78.90;;;;;;4992863;28;20694;-87
2021/06/18 02:47:18;;;;;;;7.37;6.77;;;19.70;77.80;;;;;;4992731;28;20620;-87
2021/06/18 02:49:49;;;;;;;8.00;7.40;;;19.80;76.90;;;;;;4993078;28;20623;-87
2021/06/18 02:52:25;;;;;;;8.33;7.63;;;19.70;76.90;;;;;;4992276;28;20659;-87
2021/06/18 02:55:02;;;;;;;7.80;7.00;;;19.70;77.00;;;;;;4992242;28;20642;-88
2021/06/18 02:57:33;;;;;;;8.83;8.13;;;19.70;76.90;;;;;;4992368;28;21227;-87
2021/06/18 03:00:05;;;;;;;7.83;7.13;;;19.80;79.30;;;;;;4992166;28;20627;-87
2021/06/18 03:02:40;;;;;;;8.93;8.17;;;19.60;78.80;;;;;;4992349;28;20612;-87
2021/06/18 03:05:10;;;;;;;8.27;7.67;;;19.40;79.70;;;;;;4992208;28;20651;-87
2021/06/18 03:07:38;;;;;;;8.13;7.53;;;19.10;80.70;;;;;;4992690;28;20608;-86
2021/06/18 03:10:08;;;;;;;9.80;9.00;;;18.90;82.50;;;;;;4992314;28;20744;-88
2021/06/18 03:12:40;;;;;;;9.20;8.40;;;19.00;82.20;;;;;;4992096;28;20655;-87
2021/06/18 03:15:10;;;;;;;10.03;8.80;;;19.20;81.40;;;;;;4992357;28;20668;-87
2021/06/18 03:17:42;;;;;;;8.53;7.90;;;19.40;80.60;;;;;;4992550;28;20610;-87
2021/06/18 03:20:14;;;;;;;9.53;8.33;;;19.50;80.30;;;;;;4992193;28;20607;-86
2021/06/18 03:22:42;;;;;;;9.07;8.33;;;19.60;80.10;;;;;;4991954;28;20615;-87
2021/06/18 03:25:10;;;;;;;9.20;8.30;;;19.50;79.10;;;;;;4990744;28;20623;-87
2021/06/18 03:27:38;;;;;;;9.20;8.30;;;19.30;82.00;;;;;;4991741;28;20618;-87
2021/06/18 03:30:08;;;;;;;11.30;8.20;;;19.40;81.90;;;;;;4996542;28;20653;-87
2021/06/18 03:32:38;;;;;;;8.67;7.87;;;19.50;80.70;;;;;;5008051;28;20671;-87
2021/06/18 03:35:06;;;;;;;9.60;8.30;;;19.50;80.70;;;;;;4991339;28;20638;-86
2021/06/18 03:37:34;;;;;;;8.80;8.10;;;19.50;82.00;;;;;;4991683;28;21210;-87
2021/06/18 03:40:01;;;;;;;8.43;7.57;;;19.40;82.40;;;;;;4991925;28;20967;-87
2021/06/18 03:42:29;;;;;;;8.43;7.53;;;19.30;82.50;;;;;;4991745;28;20667;-87
2021/06/18 03:44:56;;;;;;;9.90;9.20;;;19.30;83.10;;;;;;4991641;28;20654;-87
2021/06/18 03:47:24;;;;;;;8.60;7.80;;;19.40;83.90;;;;;;4992405;28;21057;-87
2021/06/18 03:49:54;;;;;;;9.00;8.23;;;19.30;84.20;;;;;;4994132;28;20648;-87
2021/06/18 03:52:21;;;;;;;10.00;9.10;;;19.40;83.10;;;;;;4992532;28;20647;-87
2021/06/18 03:54:48;;;;;;;9.67;8.77;;;19.40;82.90;;;;;;4991540;28;20727;-87
2021/06/18 03:57:18;;;;;;;11.50;9.40;;;19.40;83.90;;;;;;4991717;28;20717;-87
2021/06/18 03:59:46;;;;;;;9.57;8.87;;;19.40;83.00;;;;;;4991484;28;20667;-87
2021/06/18 04:02:16;;;;;;;10.70;9.30;;;19.40;83.70;;;;;;4991260;28;20624;-87
2021/06/18 04:04:47;;;;;;;9.33;8.40;;;19.50;83.70;;;;;;4991709;28;20615;-87
2021/06/18 04:07:15;;;;;;;9.63;8.93;;;19.40;84.30;;;;;;4994599;28;21026;-89
2021/06/18 04:09:43;;;;;;;10.23;9.23;;;19.50;83.40;;;;;;4996941;28;20634;-88
2021/06/18 04:12:11;;;;;;;9.03;8.13;;;19.60;82.90;;;;;;4992986;28;20636;-86
2021/06/18 04:14:38;;;;;;;9.03;8.40;;;19.60;82.40;;;;;;4995433;28;20615;-87
2021/06/18 04:17:05;;;;;;;9.17;8.37;;;19.70;82.60;;;;;;4994534;28;21002;-89
2021/06/18 04:19:33;;;;;;;8.97;8.27;;;19.90;81.80;;;;;;4992877;28;21149;-88
2021/06/18 04:25:03;;;;;;;8.10;7.40;;;20.00;81.80;;;;;;4989008;28;20632;-91
2021/06/18 04:27:30;;;;;;;8.80;8.00;;;20.00;82.70;;;;;;4991354;28;20612;-90
2021/06/18 04:30:11;;;;;;;8.60;7.50;;;20.10;81.80;;;;;;4991605;28;20660;-91
2021/06/18 04:32:39;;;;;;;8.03;7.33;;;20.10;80.90;;;;;;4995437;28;20644;-90
2021/06/18 04:35:41;;;;;;;7.70;7.00;;;20.20;80.90;;;;;;4995431;28;20730;-91
2021/06/18 04:38:14;;;;;;;8.43;7.60;;;20.20;81.00;;;;;;4915949;29;20668;-90
2021/06/18 04:40:43;;;;;;;8.03;7.40;;;20.30;79.90;;;;;;4967901;28;20623;-88
2021/06/18 04:43:10;;;;;;;9.20;7.20;;;20.40;81.50;;;;;;4995175;28;20711;-88
2021/06/18 04:45:36;;;;;;;8.40;7.60;;;20.40;81.80;;;;;;4994050;28;20627;-88
2021/06/18 04:48:04;;;;;;;7.90;7.30;;;20.40;80.90;;;;;;4994823;28;20627;-87
2021/06/18 04:50:31;;;;;;;7.57;6.97;;;20.50;82.20;;;;;;4994798;28;20611;-85
2021/06/18 04:53:00;;;;;;;9.93;7.43;;;20.50;81.10;;;;;;4988546;28;20664;-86
2021/06/18 04:55:27;;;;;;;7.87;7.17;;;20.70;80.80;;;;;;4996346;28;20620;-87
2021/06/18 04:57:55;;;;;;;8.73;7.13;;;20.80;80.60;;;;;;5000542;28;20966;-86
2021/06/18 05:00:24;;;;;;;7.37;6.80;;;20.80;81.20;;;;;;4995477;28;20671;-87
2021/06/18 05:02:51;;;;;;;8.30;7.60;;;20.90;81.50;;;;;;4994544;28;20628;-86
2021/06/18 05:05:18;;;;;;;7.30;6.60;;;21.00;82.80;;;;;;4994419;28;20671;-86
2021/06/18 05:07:45;;;;;;;7.03;6.50;;;21.00;81.60;;;;;;4994457;28;20621;-86
2021/06/18 05:10:13;;;;;;;7.00;6.40;;;21.10;81.30;;;;;;4994787;28;20600;-86
2021/06/18 05:12:40;;;;;;;7.30;6.50;;;21.20;82.90;;;;;;4994858;28;21276;-86
2021/06/18 05:15:09;;;;;;;8.00;6.40;;;21.30;76.20;;;;;;4994747;28;21002;-87
2021/06/18 05:17:37;;;;;;;7.37;6.07;;;21.40;78.80;;;;;;4994226;28;20625;-87
2021/06/18 05:20:05;;;;;;;6.80;6.07;;;21.50;78.70;;;;;;4994809;28;20604;-87
2021/06/18 05:22:33;;;;;;;7.60;6.30;;;21.50;77.10;;;;;;4993841;28;20609;-86
2021/06/18 05:25:00;;;;;;;7.77;6.40;;;21.60;77.30;;;;;;4993254;28;20621;-87
2021/06/18 05:27:28;;;;;;;9.83;8.07;;;21.70;77.50;;;;;;4994041;28;20617;-87
2021/06/18 05:29:55;;;;;;;8.07;6.90;;;21.70;76.60;;;;;;4993877;28;20624;-86
2021/06/18 05:32:23;;;;;;;6.97;6.27;;;21.80;76.80;;;;;;4990425;28;20677;-86
2021/06/18 05:34:50;;;;;;;6.87;6.27;;;21.90;76.30;;;;;;4993011;28;20617;-87
2021/06/18 05:37:17;;;;;;;6.80;6.20;;;22.00;75.60;;;;;;4993842;28;20624;-82
2021/06/18 05:39:44;;;;;;;6.60;6.00;;;22.00;77.00;;;;;;4992112;28;21010;-82
2021/06/18 05:42:11;;;;;;;6.00;5.60;;;22.10;75.10;;;;;;4989826;28;20679;-83
2021/06/18 05:44:39;;;;;;;6.70;6.20;;;22.20;74.30;;;;;;4993211;28;20683;-82
2021/06/18 05:47:05;;;;;;;7.27;5.70;;;22.20;74.30;;;;;;4999182;28;20643;-82
2021/06/18 05:49:34;;;;;;;6.67;6.17;;;22.30;74.40;;;;;;5007771;28;20990;-83
2021/06/18 05:52:01;;;;;;;6.53;6.03;;;22.40;73.60;;;;;;4993122;28;20680;-84
2021/06/18 05:54:28;;;;;;;5.77;5.37;;;22.50;73.20;;;;;;4988056;28;20974;-82
2021/06/18 05:56:55;;;;;;;7.33;5.70;;;22.60;71.90;;;;;;4993867;28;20635;-82
2021/06/18 05:59:24;;;;;;;5.87;5.37;;;22.60;71.60;;;;;;4994824;28;20622;-83
2021/06/18 06:01:51;;;;;;;6.70;6.10;;;22.70;70.50;;;;;;4993985;28;20625;-82
2021/06/18 06:04:18;;;;;;;7.93;5.80;;;22.70;72.00;;;;;;4992799;28;20628;-83
2021/06/18 06:06:47;;;;;;;6.00;5.50;;;22.90;71.50;;;;;;4993101;28;21160;-83
2021/06/18 06:09:13;;;;;;;6.13;5.63;;;23.00;71.20;;;;;;4992872;28;20665;-83
2021/06/18 06:11:41;;;;;;;5.67;5.27;;;23.10;72.10;;;;;;4992528;28;20618;-83
2021/06/18 06:14:08;;;;;;;5.80;5.30;;;23.10;70.40;;;;;;4992921;28;20655;-83
2021/06/18 06:16:36;;;;;;;5.97;5.37;;;23.20;71.10;;;;;;4992520;28;21040;-83
2021/06/18 06:19:03;;;;;;;5.50;5.00;;;23.10;69.50;;;;;;4993149;28;21182;-83
2021/06/18 06:21:30;;;;;;;8.03;6.20;;;23.20;69.60;;;;;;4992358;28;20648;-83
2021/06/18 06:23:59;;;;;;;6.03;5.53;;;23.30;70.10;;;;;;4991211;28;21033;-83
2021/06/18 06:26:27;;;;;;;5.57;5.17;;;23.40;70.10;;;;;;4986408;28;20647;-83
2021/06/18 06:28:54;;;;;;;5.50;5.00;;;23.40;69.50;;;;;;4992170;28;21048;-83
2021/06/18 06:31:21;;;;;;;7.00;6.40;;;23.40;69.50;;;;;;4993633;28;20957;-83
2021/06/18 06:33:48;;;;;;;5.87;5.47;;;23.50;70.30;;;;;;4992397;28;20656;-83
2021/06/18 06:36:15;;;;;;;5.97;5.43;;;23.50;70.00;;;;;;4992445;28;20610;-83
2021/06/18 06:38:42;;;;;;;5.90;5.40;;;23.60;70.20;;;;;;4993190;28;20658;-83
2021/06/18 06:41:10;;;;;;;6.83;5.20;;;23.60;68.50;;;;;;4992892;28;20614;-83
2021/06/18 06:43:37;;;;;;;5.70;5.30;;;23.70;68.80;;;;;;4993385;28;20632;-83
2021/06/18 06:46:04;;;;;;;7.00;6.30;;;23.80;69.30;;;;;;4988767;28;20651;-83
2021/06/18 06:48:31;;;;;;;6.30;5.80;;;23.90;67.80;;;;;;4991113;28;20660;-83
2021/06/18 06:50:59;;;;;;;6.30;5.50;;;23.90;68.10;;;;;;4993684;28;20614;-82
2021/06/18 06:53:26;;;;;;;4.93;4.63;;;24.00;67.70;;;;;;4992413;28;20654;-83
2021/06/18 06:55:53;;;;;;;6.43;5.80;;;24.00;67.90;;;;;;4994039;28;20696;-85
2021/06/18 06:58:21;;;;;;;6.57;5.97;;;24.00;68.40;;;;;;4993852;28;20626;-83
2021/06/18 07:00:48;;;;;;;6.13;5.63;;;24.00;67.70;;;;;;4994300;28;20607;-83
2021/06/18 07:03:15;;;;;;;6.37;5.87;;;24.10;69.80;;;;;;4993775;28;20603;-82
2021/06/18 07:05:42;;;;;;;6.10;5.60;;;24.20;68.00;;;;;;4993209;28;20613;-84
2021/06/18 07:08:20;;;;;;;6.70;6.20;;;24.20;69.50;;;;;;4993557;28;20697;-82
2021/06/18 07:10:47;;;;;;;6.43;5.83;;;24.40;66.30;;;;;;4993443;28;20610;-82
2021/06/18 07:13:15;;;;;;;6.50;6.00;;;24.40;66.80;;;;;;4993121;28;20642;-81
2021/06/18 07:15:45;;;;;;;6.80;6.20;;;24.50;69.00;;;;;;4993126;28;20610;-83
2021/06/18 07:18:12;;;;;;;7.13;6.50;;;24.80;69.00;;;;;;4992760;28;21160;-84
2021/06/18 07:20:39;;;;;;;7.20;6.60;;;24.90;67.70;;;;;;4993742;28;21160;-85
2021/06/18 07:23:07;;;;;;;6.30;5.50;;;25.10;66.20;;;;;;4992894;28;20596;-81
2021/06/18 07:25:33;;;;;;;8.63;6.07;;;25.10;65.70;;;;;;4992249;28;20699;-84
2021/06/18 07:28:00;;;;;;;9.93;6.57;;;25.00;65.00;;;;;;4993203;28;20678;-85
2021/06/18 07:30:28;;;;;;;7.90;5.90;;;25.20;64.80;;;;;;4991730;28;20601;-82
2021/06/18 07:32:56;;;;;;;6.60;6.10;;;25.30;64.40;;;;;;4988412;28;20656;-84
2021/06/18 07:35:23;;;;;;;7.27;6.77;;;25.50;65.80;;;;;;4993301;28;20840;-83
2021/06/18 07:37:52;;;;;;;9.40;8.23;;;25.70;66.50;;;;;;4993450;28;20639;-83
2021/06/18 07:40:20;;;;;;;7.23;6.20;;;25.80;67.20;;;;;;4993808;28;20616;-84
2021/06/18 07:42:47;;;;;;;7.67;6.97;;;25.90;67.00;;;;;;4994805;28;20697;-84
2021/06/18 07:45:15;;;;;;;8.63;7.90;;;26.00;65.10;;;;;;4993370;28;20654;-85
2021/06/18 07:47:42;;;;;;;8.63;7.83;;;26.00;67.20;;;;;;4993770;28;20987;-85
2021/06/18 07:50:13;;;;;;;8.37;7.37;;;26.10;66.70;;;;;;4994434;28;20620;-85
2021/06/18 07:52:40;;;;;;;10.00;8.10;;;26.10;66.00;;;;;;4994102;28;20652;-85
2021/06/18 07:55:11;;;;;;;9.30;8.40;;;26.30;66.60;;;;;;4993690;28;20687;-84
2021/06/18 07:57:40;;;;;;;9.67;8.87;;;26.30;65.80;;;;;;4994063;28;20724;-86
2021/06/18 08:00:09;;;;;;;8.83;8.03;;;26.40;66.60;;;;;;4994156;28;20629;-85
2021/06/18 08:02:43;;;;;;;8.90;8.10;;;26.50;65.40;;;;;;4992885;28;20617;-86
2021/06/18 08:05:17;;;;;;;8.30;7.50;;;26.50;64.20;;;;;;4992558;28;20612;-87
2021/06/18 08:07:46;;;;;;;14.40;8.07;;;26.50;64.10;;;;;;4992208;28;20617;-84
2021/06/18 08:10:22;;;;;;;12.40;9.37;;;26.70;65.80;;;;;;4992773;28;20613;-86
2021/06/18 08:16:33;;;;;;;8.60;7.80;;;26.70;64.20;;;;;;4936299;28;20918;-85
2021/06/18 08:19:00;;;;;;;8.53;7.93;;;26.80;63.60;;;;;;4990364;28;20649;-83
2021/06/18 08:21:29;;;;;;;9.43;8.37;;;26.50;64.50;;;;;;4994453;28;20977;-84
2021/06/18 08:23:56;;;;;;;8.53;7.83;;;26.70;65.90;;;;;;4993997;28;20679;-85
2021/06/18 08:26:23;;;;;;;8.07;7.50;;;26.90;65.00;;;;;;4993955;28;20631;-84
2021/06/18 08:28:50;;;;;;;9.53;8.63;;;27.00;65.20;;;;;;4994501;28;20617;-84
2021/06/18 08:31:17;;;;;;;8.77;8.03;;;27.30;65.00;;;;;;4993165;28;20613;-85
2021/06/18 08:33:44;;;;;;;9.50;8.60;;;27.40;62.40;;;;;;4994429;28;20681;-85
2021/06/18 08:36:11;;;;;;;9.10;8.33;;;27.50;63.30;;;;;;4992877;28;20620;-83
2021/06/18 08:38:40;;;;;;;8.03;7.37;;;27.60;62.20;;;;;;4989745;28;20720;-82
2021/06/18 08:41:08;;;;;;;11.77;8.60;;;27.60;64.50;;;;;;4991042;28;20692;-82
2021/06/18 08:43:36;;;;;;;8.53;7.83;;;27.60;64.40;;;;;;4985595;28;20628;-82
2021/06/18 08:46:04;;;;;;;8.80;8.20;;;27.60;63.50;;;;;;4990456;28;20620;-83
2021/06/18 08:48:32;;;;;;;8.17;7.60;;;27.80;62.30;;;;;;4992307;28;20635;-85
2021/06/18 08:51:01;;;;;;;10.10;9.07;;;27.80;61.80;;;;;;4992465;28;20968;-83
2021/06/18 08:53:28;;;;;;;11.63;8.70;;;28.00;60.80;;;;;;4992409;28;20648;-83
2021/06/18 08:55:57;;;;;;;9.10;8.40;;;28.00;61.30;;;;;;4992292;28;20649;-84
2021/06/18 08:58:24;;;;;;;8.73;8.00;;;28.10;60.20;;;;;;4993380;28;20985;-83
2021/06/18 09:00:52;;;;;;;10.17;9.23;;;28.30;61.10;;;;;;4992091;28;20628;-83
2021/06/18 09:03:41;;;;;;;9.47;8.57;;;28.40;60.00;;;;;;4991959;28;20613;-83
2021/06/18 09:06:27;;;;;;;10.17;9.27;;;28.40;60.10;;;;;;4991838;28;21177;-83
2021/06/18 09:09:16;;;;;;;10.43;9.10;;;28.50;59.60;;;;;;4991476;28;21205;-83
2021/06/18 09:11:47;;;;;;;8.50;7.80;;;28.70;59.70;;;;;;4992981;28;20620;-83
2021/06/18 09:14:19;;;;;;;9.10;8.40;;;28.70;58.60;;;;;;4991464;28;20652;-83
2021/06/18 09:17:17;;;;;;;10.00;9.10;;;28.40;59.70;;;;;;4993545;28;20624;-83
2021/06/18 09:19:46;;;;;;;10.03;9.20;;;28.70;58.50;;;;;;4992427;28;20664;-83
2021/06/18 09:22:15;;;;;;;9.50;8.70;;;28.70;58.60;;;;;;4992898;28;20644;-83
2021/06/18 09:24:45;;;;;;;10.43;9.53;;;28.80;58.70;;;;;;4991509;28;20604;-83
2021/06/18 09:27:14;;;;;;;10.77;9.87;;;28.90;58.00;;;;;;4993760;28;20639;-84
2021/06/18 09:29:42;;;;;;;9.67;8.77;;;29.00;57.90;;;;;;4993548;28;20609;-83
2021/06/18 09:32:12;;;;;;;10.00;9.20;;;29.10;57.80;;;;;;4993878;28;20696;-83
2021/06/18 09:34:59;;;;;;;10.03;9.30;;;29.20;58.70;;;;;;4992368;28;20644;-83
2021/06/18 09:37:33;;;;;;;10.80;8.60;;;29.30;57.10;;;;;;4993418;28;20605;-83
2021/06/18 09:40:20;;;;;;;9.23;8.63;;;29.20;58.50;;;;;;4992688;28;20631;-83
2021/06/18 09:42:57;;;;;;;8.83;8.23;;;29.40;57.70;;;;;;4993748;28;20620;-84
2021/06/18 09:45:26;;;;;;;9.67;8.90;;;29.50;57.20;;;;;;4992820;28;20624;-84
2021/06/18 09:47:53;;;;;;;10.37;9.37;;;29.60;55.50;;;;;;4993354;28;20616;-83
2021/06/18 09:50:26;;;;;;;9.80;9.00;;;29.80;56.00;;;;;;4992593;28;20969;-83
2021/06/18 09:52:54;;;;;;;9.30;8.50;;;29.90;54.80;;;;;;4993304;28;21157;-83
2021/06/18 09:55:23;;;;;;;9.00;8.20;;;29.90;55.30;;;;;;4992121;28;20647;-83
2021/06/18 09:57:54;;;;;;;11.50;8.80;;;29.80;55.50;;;;;;4993000;28;20642;-83
2021/06/18 10:00:24;;;;;;;9.30;8.20;;;29.50;56.30;;;;;;4993324;28;20617;-83
2021/06/18 10:02:53;;;;;;;10.30;9.40;;;29.70;55.40;;;;;;4992642;28;20638;-84
2021/06/18 10:05:21;;;;;;;9.50;8.80;;;30.00;56.20;;;;;;4992265;28;20611;-85
2021/06/18 10:07:50;;;;;;;9.50;8.50;;;30.10;55.70;;;;;;4992719;28;20628;-83
2021/06/18 10:10:21;;;;;;;9.73;8.87;;;30.40;54.80;;;;;;4989357;28;20985;-84
2021/06/18 10:12:48;;;;;;;8.53;7.73;;;30.50;54.80;;;;;;4990989;28;20616;-85
2021/06/18 10:15:20;;;;;;;9.00;8.20;;;30.60;53.70;;;;;;4990158;28;20656;-83
2021/06/18 10:17:49;;;;;;;9.03;8.23;;;30.80;55.20;;;;;;4992942;28;20628;-84
2021/06/18 10:20:18;;;;;;;9.03;8.20;;;30.90;52.80;;;;;;4993076;28;20715;-82
2021/06/18 10:22:52;;;;;;;12.50;7.87;;;31.00;52.30;;;;;;4991874;28;20617;-83
2021/06/18 10:25:24;;;;;;;11.93;8.00;;;30.90;52.10;;;;;;4995764;28;20627;-82
2021/06/18 10:27:51;;;;;;;7.57;6.97;;;31.10;51.90;;;;;;4991732;28;20597;-83
2021/06/18 10:30:32;;;;;;;8.43;7.73;;;31.30;49.80;;;;;;4992233;28;20614;-84
2021/06/18 10:33:00;;;;;;;9.77;8.90;;;31.30;50.30;;;;;;4991830;28;20612;-84
2021/06/18 10:35:51;;;;;;;9.27;8.10;;;31.30;51.00;;;;;;4991455;28;20667;-83
2021/06/18 10:38:31;;;;;;;8.93;8.33;;;31.40;51.30;;;;;;4992402;28;20675;-84
2021/06/18 10:41:01;;;;;;;9.03;8.20;;;31.70;52.50;;;;;;4992042;28;20616;-84
2021/06/18 10:43:39;;;;;;;10.90;9.67;;;31.90;51.20;;;;;;4992775;28;20984;-85
2021/06/18 10:46:14;;;;;;;7.67;7.07;;;32.10;49.10;;;;;;4990955;28;20657;-83
2021/06/18 10:48:59;;;;;;;7.03;6.60;;;32.10;48.50;;;;;;4990985;28;21025;-83
2021/06/18 10:51:34;;;;;;;7.13;6.50;;;32.10;49.00;;;;;;4990745;28;21249;-84
2021/06/18 10:54:03;;;;;;;7.00;6.37;;;32.30;47.30;;;;;;4991747;28;20644;-85
2021/06/18 10:56:55;;;;;;;5.97;5.17;;;32.50;47.00;;;;;;4991464;28;20616;-85
2021/06/18 10:59:29;;;;;;;5.17;4.87;;;32.70;44.50;;;;;;4973129;28;20744;-84
2021/06/18 11:01:58;;;;;;;5.60;5.30;;;33.00;41.70;;;;;;4993470;28;20613;-84
2021/06/18 11:04:41;;;;;;;5.90;5.40;;;33.10;42.10;;;;;;4994567;28;21023;-85
2021/06/18 11:07:21;;;;;;;6.03;5.70;;;33.20;41.40;;;;;;4995450;28;20627;-83
2021/06/18 11:09:49;;;;;;;7.17;6.57;;;33.10;43.40;;;;;;4989874;28;20652;-83
2021/06/18 11:12:39;;;;;;;7.47;6.87;;;33.20;43.80;;;;;;4995237;28;20625;-84
2021/06/18 11:15:08;;;;;;;7.57;7.07;;;33.40;45.40;;;;;;4995250;28;20755;-83
2021/06/18 11:17:47;;;;;;;7.47;6.80;;;33.60;45.50;;;;;;4992431;28;20833;-86
2021/06/18 11:20:17;;;;;;;9.33;7.40;;;34.00;45.30;;;;;;4992959;28;20928;-85
2021/06/18 11:22:48;;;;;;;6.33;5.93;;;34.30;44.50;;;;;;4995526;28;20613;-86
2021/06/18 11:25:49;;;;;;;6.43;5.97;;;34.30;43.70;;;;;;4993814;28;20614;-84
2021/06/18 11:28:41;;;;;;;6.70;6.20;;;34.60;42.00;;;;;;4934526;29;20646;-84
2021/06/18 11:31:12;;;;;;;6.60;6.03;;;34.50;42.80;;;;;;4933428;28;20727;-86
2021/06/18 11:33:55;;;;;;;5.30;5.00;;;34.50;41.90;;;;;;4971105;28;21212;-85
2021/06/18 11:36:50;;;;;;;5.00;4.60;;;34.90;40.60;;;;;;4994247;28;21046;-86
2021/06/18 11:39:23;;;;;;;5.07;4.67;;;35.20;37.90;;;;;;4993530;28;20621;-86
2021/06/18 11:42:05;;;;;;;5.27;4.83;;;35.30;37.40;;;;;;4995310;28;20605;-85
2021/06/18 11:44:32;;;;;;;6.70;4.90;;;35.30;38.10;;;;;;4994745;28;20688;-87
2021/06/18 11:47:01;;;;;;;5.10;4.80;;;35.50;37.50;;;;;;4995009;28;20624;-84
2021/06/18 11:49:33;;;;;;;4.87;4.57;;;35.80;37.90;;;;;;4995701;28;20980;-87
2021/06/18 11:52:09;;;;;;;5.43;4.93;;;36.10;37.80;;;;;;4994624;28;20613;-85
2021/06/18 11:54:39;;;;;;;4.80;4.60;;;36.70;35.60;;;;;;4993989;28;20723;-85
2021/06/18 11:57:09;;;;;;;10.07;4.07;;;36.80;35.30;;;;;;4994923;28;20651;-86
2021/06/18 11:59:39;;;;;;;5.13;4.70;;;37.10;36.50;;;;;;4989724;28;21032;-87
2021/06/18 12:02:23;;;;;;;4.53;4.33;;;37.60;34.30;;;;;;4995222;28;20627;-87
2021/06/18 12:05:10;;;;;;;3.40;3.20;;;37.90;34.50;;;;;;4994628;28;20612;-86
2021/06/18 12:07:37;;;;;;;5.33;4.90;;;38.70;32.80;;;;;;4995465;28;20716;-85
2021/06/18 12:10:06;;;;;;;4.10;3.90;;;39.10;33.20;;;;;;4994918;28;20628;-87
2021/06/18 12:12:44;;;;;;;4.70;4.25;;;39.40;33.00;;;;;;4995255;28;20682;-87
2021/06/18 12:15:21;;;;;;;4.88;4.57;;;40.20;31.80;;;;;;4992048;28;20592;-86
2021/06/18 12:17:53;;;;;;;3.95;3.75;;;40.40;31.20;;;;;;4972808;28;20631;-85
2021/06/18 12:20:37;;;;;;;4.07;3.83;;;40.60;31.10;;;;;;4970252;28;20213;-86
2021/06/18 12:23:07;;;;;;;4.43;4.10;;;41.10;29.70;;;;;;4971213;28;20699;-86
2021/06/18 12:25:36;;;;;;;4.97;4.68;;;41.10;29.80;;;;;;4988516;28;20632;-87
2021/06/18 12:28:04;;;;;;;4.45;4.15;;;41.00;30.50;;;;;;4990323;28;20215;-86
2021/06/18 12:30:33;;;;;;;3.75;3.55;;;41.10;31.10;;;;;;4988817;28;20225;-88
2021/06/18 12:33:01;;;;;;;4.45;4.00;;;41.20;29.80;;;;;;4989404;28;20260;-86
2021/06/18 12:35:39;;;;;;;4.53;4.32;;;41.50;29.30;;;;;;4988905;28;20574;-87
2021/06/18 12:38:09;;;;;;;4.35;4.05;;;41.80;28.20;;;;;;4990447;28;20205;-87
2021/06/18 12:40:37;;;;;;;4.13;3.92;;;41.10;29.50;;;;;;4991012;28;20598;-86
2021/06/18 12:43:07;;;;;;;4.68;4.30;;;40.80;30.20;;;;;;4990770;28;20292;-86
2021/06/18 12:45:41;;;;;;;4.50;4.20;;;41.00;30.40;;;;;;4982288;28;20233;-88
2021/06/18 12:48:12;;;;;;;4.68;4.15;;;40.40;29.50;;;;;;4990684;28;20205;-87
2021/06/18 12:50:43;;;;;;;5.50;5.10;;;39.80;30.30;;;;;;4990608;28;20213;-86
2021/06/18 12:53:12;;;;;;;4.43;4.13;;;39.10;31.40;;;;;;4993716;28;20205;-85
2021/06/18 12:55:40;;;;;;;4.00;3.80;;;38.70;32.10;;;;;;4993083;28;20208;-85
2021/06/18 12:58:13;;;;;;;5.33;3.80;;;39.00;32.70;;;;;;4994485;28;20671;-86
2021/06/18 13:00:48;;;;;;;4.68;4.28;;;39.90;29.80;;;;;;4994376;28;20197;-86
2021/06/18 13:03:16;;;;;;;5.22;4.47;;;40.30;29.70;;;;;;4994361;28;20295;-85
2021/06/18 13:05:55;;;;;;;4.10;3.78;;;40.50;30.00;;;;;;4993952;28;20683;-86
2021/06/18 13:08:27;;;;;;;3.63;3.42;;;41.10;28.70;;;;;;4993924;28;20263;-85
2021/06/18 13:10:56;;;;;;;4.53;3.03;;;41.00;29.70;;;;;;4994321;28;20209;-86